Lyle, Washington
Current Conditions -  °F | °C
As of 10:53 AM on Sunday 21 Dec 2014 (Local Time) from KDLS Reporting Station
Light Rain Light Rain  
Wind Chill: 53°   Ceiling: 7000
Heat Index: 53°   Visibility: 10mi
Dew Point: 47°   Wind: 12mph
Humidity: 80%   Direction: 270°W
Pressure: 29.98"   Gusts: NA
Location:  45.7°N, 121.28°W
Report Text: KDLS 211853Z AUTO 27010KT 10SM -RA SCT050 BKN070 OVC120 12/08 A2998 RMK AO2 PK WND 28027/1815 SLP153 P0003 T01170083
Loading
Personal Weather Stations






























Interactive Weather Map New forecast layout! Learn more

10-Day Weather Forecast

Advertisements
Track Severe Weather on mobile